createdAt,value
2023-04-17T00:00:23.802Z,10.05
2023-04-17T00:02:58.122Z,9.98
2023-04-17T00:05:28.238Z,10.65
2023-04-17T00:08:00.574Z,10.80
2023-04-17T00:10:29.294Z,9.27
2023-04-17T00:12:58.077Z,9.43
2023-04-17T00:15:26.986Z,9.68
2023-04-17T00:17:58.913Z,12.32
2023-04-17T00:20:30.149Z,10.93
2023-04-17T00:23:02.100Z,11.00
2023-04-17T00:25:31.236Z,12.70
2023-04-17T00:27:59.916Z,10.90
2023-04-17T00:30:28.740Z,11.65
2023-04-17T00:32:58.780Z,11.93
2023-04-17T00:35:28.803Z,11.50
2023-04-17T00:37:57.577Z,13.55
2023-04-17T00:40:28.132Z,13.40
2023-04-17T00:43:05.368Z,13.48
2023-04-17T00:45:36.492Z,11.98
2023-04-17T00:48:06.914Z,12.27
2023-04-17T00:50:37.023Z,13.25
2023-04-17T00:53:06.703Z,13.02
2023-04-17T00:55:40.814Z,13.10
2023-04-17T00:58:13.223Z,14.68
2023-04-17T01:00:43.011Z,15.05
2023-04-17T01:03:12.419Z,12.88
2023-04-17T01:05:43.405Z,13.25
2023-04-17T01:08:13.279Z,13.23
2023-04-17T01:10:43.383Z,14.20
2023-04-17T01:13:15.001Z,15.57
2023-04-17T01:18:17.246Z,13.27
2023-04-17T01:20:46.129Z,13.73
2023-04-17T01:23:16.263Z,11.82
2023-04-17T01:25:47.499Z,14.15
2023-04-17T01:28:16.554Z,13.50
2023-04-17T01:30:46.655Z,12.23
2023-04-17T01:33:15.784Z,11.95
2023-04-17T01:35:44.840Z,14.20
2023-04-17T01:38:14.016Z,11.82
2023-04-17T01:40:44.255Z,11.45
2023-04-17T01:43:15.202Z,12.23
2023-04-17T01:45:44.073Z,11.02
2023-04-17T01:48:15.558Z,12.65
2023-04-17T01:50:45.514Z,12.55
2023-04-17T01:53:14.328Z,10.80
2023-04-17T01:55:44.293Z,11.82
2023-04-17T01:58:14.555Z,11.70
2023-04-17T02:00:45.431Z,12.43
2023-04-17T02:03:15.671Z,11.25
2023-04-17T02:05:47.198Z,11.15
2023-04-17T02:08:16.577Z,11.35
2023-04-17T02:10:47.061Z,10.43
2023-04-17T02:13:17.393Z,9.70
2023-04-17T02:15:46.062Z,10.23
2023-04-17T02:18:15.133Z,10.15
2023-04-17T02:20:48.018Z,11.38
2023-04-17T02:23:18.049Z,10.85
2023-04-17T02:25:46.771Z,10.13
2023-04-17T02:28:18.753Z,10.20
2023-04-17T02:30:47.752Z,11.27
2023-04-17T02:33:17.598Z,9.73
2023-04-17T02:35:46.658Z,10.20
2023-04-17T02:38:17.740Z,10.13
2023-04-17T02:40:46.738Z,9.65
2023-04-17T02:43:15.828Z,10.05
2023-04-17T02:45:47.020Z,9.75
2023-04-17T02:48:16.495Z,10.40
2023-04-17T02:50:48.168Z,9.80
2023-04-17T02:53:20.332Z,10.15
2023-04-17T02:55:55.978Z,9.88
2023-04-17T02:58:27.330Z,12.05
2023-04-17T03:01:02.965Z,11.18
2023-04-17T03:03:39.248Z,10.77
2023-04-17T03:06:14.010Z,10.98
2023-04-17T03:08:46.305Z,10.77
2023-04-17T03:11:18.335Z,14.32
2023-04-17T03:13:52.363Z,12.60
2023-04-17T03:16:24.769Z,11.73
2023-04-17T03:18:55.344Z,11.35
2023-04-17T03:21:28.171Z,11.20
2023-04-17T03:24:04.621Z,11.90
2023-04-17T03:26:37.242Z,13.48
2023-04-17T03:29:12.412Z,11.23
2023-04-17T03:31:52.113Z,11.88
2023-04-17T03:34:22.568Z,10.80
2023-04-17T03:36:51.882Z,13.55
2023-04-17T03:39:24.807Z,13.60
2023-04-17T03:41:57.612Z,14.25
2023-04-17T03:44:29.928Z,14.68
2023-04-17T03:47:04.193Z,14.73
2023-04-17T03:49:33.306Z,14.50
2023-04-17T03:52:05.515Z,12.98
2023-04-17T03:54:37.338Z,11.57
2023-04-17T03:57:09.541Z,11.85
2023-04-17T03:59:42.782Z,10.30
2023-04-17T04:02:14.294Z,11.07
2023-04-17T04:04:45.224Z,10.52
2023-04-17T04:07:20.659Z,11.18
2023-04-17T04:09:52.312Z,9.00
2023-04-17T04:12:23.052Z,9.77
2023-04-17T04:14:51.815Z,9.82
2023-04-17T04:17:22.504Z,9.65
2023-04-17T04:19:51.294Z,9.40
2023-04-17T04:22:21.301Z,10.77
2023-04-17T04:24:56.605Z,8.75
2023-04-17T04:27:34.753Z,10.30
2023-04-17T04:30:11.073Z,9.38
2023-04-17T04:32:49.364Z,9.40
2023-04-17T04:37:50.409Z,9.80
2023-04-17T04:40:26.789Z,12.10
2023-04-17T04:42:56.145Z,11.55
2023-04-17T04:45:31.193Z,12.77
2023-04-17T04:48:03.444Z,11.77
2023-04-17T04:50:32.516Z,10.95
2023-04-17T04:53:04.395Z,11.10
2023-04-17T04:55:44.574Z,10.10
2023-04-17T04:58:14.517Z,9.18
2023-04-17T05:00:44.820Z,11.73
2023-04-17T05:03:22.632Z,9.77
2023-04-17T05:05:55.944Z,9.80
2023-04-17T05:08:35.026Z,9.35
2023-04-17T05:11:11.624Z,10.40
2023-04-17T05:13:40.868Z,9.10
2023-04-17T05:16:16.504Z,10.70
2023-04-17T05:18:48.470Z,10.57
2023-04-17T05:21:21.393Z,10.63
2023-04-17T05:23:52.896Z,10.57
2023-04-17T05:26:22.437Z,10.85
2023-04-17T05:28:51.879Z,11.82
2023-04-17T05:31:25.434Z,9.90
2023-04-17T05:33:56.087Z,9.05
2023-04-17T05:36:25.312Z,10.20
2023-04-17T05:38:57.725Z,10.65
2023-04-17T05:41:28.117Z,9.88
2023-04-17T05:43:57.297Z,10.73
2023-04-17T05:46:26.421Z,12.43
2023-04-17T05:48:57.757Z,11.05
2023-04-17T05:51:26.592Z,11.55
2023-04-17T05:53:55.397Z,11.30
2023-04-17T05:56:24.210Z,10.70
2023-04-17T05:58:52.927Z,13.63
2023-04-17T06:01:22.933Z,10.90
2023-04-17T06:03:56.400Z,10.40
2023-04-17T06:06:28.607Z,12.43
2023-04-17T06:08:58.352Z,13.10
2023-04-17T06:11:27.234Z,14.05
2023-04-17T06:13:55.760Z,12.30
2023-04-17T06:16:24.358Z,12.80
2023-04-17T06:18:53.190Z,13.43
2023-04-17T06:21:23.799Z,13.68
2023-04-17T06:23:53.328Z,13.93
2023-04-17T06:26:24.739Z,13.13
2023-04-17T06:28:53.292Z,15.02
2023-04-17T06:31:22.185Z,13.20
2023-04-17T06:33:51.416Z,15.07
2023-04-17T06:36:24.824Z,15.85
2023-04-17T06:38:57.674Z,15.07
2023-04-17T06:41:26.568Z,14.43
2023-04-17T06:43:55.717Z,14.77
2023-04-17T06:46:24.467Z,13.23
2023-04-17T06:48:57.942Z,13.10
2023-04-17T06:51:29.283Z,13.23
2023-04-17T06:53:58.009Z,15.05
2023-04-17T06:56:26.718Z,14.07
2023-04-17T06:58:57.921Z,13.77
2023-04-17T07:01:27.964Z,13.95
2023-04-17T07:03:56.470Z,14.23
2023-04-17T07:06:29.122Z,13.68
2023-04-17T07:08:57.620Z,12.85
2023-04-17T07:11:26.378Z,10.77
2023-04-17T07:13:56.153Z,11.43
2023-04-17T07:16:24.751Z,12.05
2023-04-17T07:18:53.803Z,13.88
2023-04-17T07:21:27.756Z,13.63
2023-04-17T07:23:56.176Z,11.07
2023-04-17T07:26:26.519Z,11.25
2023-04-17T07:28:55.071Z,9.77
2023-04-17T07:31:25.106Z,10.80
2023-04-17T07:33:53.597Z,10.68
2023-04-17T07:36:22.211Z,12.23
2023-04-17T07:38:52.295Z,12.27
2023-04-17T07:41:21.150Z,14.57
2023-04-17T07:43:49.803Z,14.38
2023-04-17T07:46:19.362Z,14.23
2023-04-17T07:48:47.973Z,16.17
2023-04-17T07:51:16.820Z,16.08
2023-04-17T07:53:45.387Z,14.50
2023-04-17T07:56:15.287Z,12.73
2023-04-17T07:58:45.012Z,12.63
2023-04-17T08:01:13.737Z,13.93
2023-04-17T08:03:45.142Z,12.77
2023-04-17T08:06:14.168Z,13.15
2023-04-17T08:08:47.397Z,14.32
2023-04-17T08:11:17.261Z,15.30
2023-04-17T08:13:45.895Z,13.30
2023-04-17T08:16:14.477Z,13.65
2023-04-17T08:18:43.036Z,14.98
2023-04-17T08:21:11.592Z,13.38
2023-04-17T08:23:41.012Z,13.27
2023-04-17T08:26:09.648Z,13.48
2023-04-17T08:28:39.642Z,14.52
2023-04-17T08:31:10.395Z,13.43
2023-04-17T08:33:38.915Z,13.77
2023-04-17T08:36:09.591Z,13.50
2023-04-17T08:38:38.247Z,14.13
2023-04-17T08:41:12.848Z,14.73
2023-04-17T08:46:13.481Z,12.13
2023-04-17T08:48:42.786Z,12.48
2023-04-17T08:51:11.295Z,11.18
2023-04-17T08:53:39.971Z,14.00
2023-04-17T08:56:09.348Z,12.80
2023-04-17T08:58:38.008Z,13.23
2023-04-17T09:01:12.013Z,13.65
2023-04-17T09:03:43.054Z,12.27
2023-04-17T09:06:12.953Z,13.55
2023-04-17T09:08:56.656Z,12.55
2023-04-17T09:11:25.710Z,11.35
2023-04-17T09:13:54.590Z,11.82
2023-04-17T09:16:25.672Z,11.70
2023-04-17T09:19:06.590Z,11.70
2023-04-17T09:21:35.036Z,11.75
2023-04-17T09:24:05.381Z,11.98
2023-04-17T09:26:34.042Z,11.10
2023-04-17T09:29:05.036Z,11.40
2023-04-17T09:31:36.191Z,10.57
2023-04-17T09:34:07.481Z,10.85
2023-04-17T09:36:38.240Z,9.93
2023-04-17T09:39:17.920Z,11.05
2023-04-17T09:41:46.344Z,9.30
2023-04-17T09:44:27.001Z,10.52
2023-04-17T09:46:57.588Z,9.80
2023-04-17T09:49:34.843Z,9.35
2023-04-17T09:52:04.172Z,10.07
2023-04-17T09:54:37.693Z,10.98
2023-04-17T09:57:08.817Z,10.32
2023-04-17T09:59:40.610Z,9.35
2023-04-17T10:02:11.567Z,9.68
2023-04-17T10:04:42.273Z,8.85
2023-04-17T10:07:14.547Z,9.40
2023-04-17T10:09:45.542Z,8.95
2023-04-17T10:12:19.230Z,8.35
2023-04-17T10:14:50.941Z,8.23
2023-04-17T10:17:28.889Z,7.18
2023-04-17T10:19:57.564Z,7.55
2023-04-17T10:22:34.071Z,7.88
2023-04-17T10:25:18.946Z,7.68
2023-04-17T10:30:17.807Z,7.45
2023-04-17T10:32:48.727Z,7.03
2023-04-17T10:35:37.611Z,7.72
2023-04-17T10:38:07.966Z,7.15
2023-04-17T10:40:38.028Z,7.82
2023-04-17T10:43:13.487Z,7.63
2023-04-17T10:45:57.325Z,7.88
2023-04-17T10:48:33.394Z,7.50
2023-04-17T10:51:02.990Z,7.10
2023-04-17T10:53:45.243Z,6.47
2023-04-17T10:56:21.194Z,6.50
2023-04-17T10:58:59.255Z,6.47
2023-04-17T11:01:31.743Z,7.22
2023-04-17T11:04:02.777Z,7.47
2023-04-17T11:06:33.737Z,6.00
2023-04-17T11:09:02.399Z,5.93
2023-04-17T11:14:12.803Z,6.15
2023-04-17T11:16:44.203Z,6.10
2023-04-17T11:19:19.548Z,6.18
2023-04-17T11:21:50.382Z,5.43
2023-04-17T11:24:24.908Z,6.20
2023-04-17T11:26:54.764Z,5.30
2023-04-17T11:29:25.246Z,5.53
2023-04-17T11:31:55.446Z,5.53
2023-04-17T11:34:27.143Z,4.97
2023-04-17T11:36:57.479Z,5.60
2023-04-17T11:39:27.924Z,5.13
2023-04-17T11:41:57.240Z,4.47
2023-04-17T11:44:27.259Z,5.28
2023-04-17T11:46:59.531Z,5.43
2023-04-17T11:49:31.348Z,5.40
2023-04-17T11:52:02.129Z,5.18
2023-04-17T11:54:32.085Z,5.35
2023-04-17T11:57:02.217Z,5.20
2023-04-17T11:59:32.680Z,4.97
2023-04-17T12:02:03.768Z,5.00
2023-04-17T12:04:35.870Z,4.97
2023-04-17T12:07:05.851Z,4.75
2023-04-17T12:09:35.653Z,4.50
2023-04-17T12:12:06.974Z,5.00
2023-04-17T12:14:35.865Z,5.00
2023-04-17T12:17:04.561Z,4.60
2023-04-17T12:19:34.597Z,4.72
2023-04-17T12:22:03.408Z,5.03
2023-04-17T12:24:32.146Z,5.10
2023-04-17T12:27:01.864Z,5.10
2023-04-17T12:29:43.244Z,5.30
2023-04-17T12:32:13.338Z,4.75
2023-04-17T12:34:43.116Z,4.78
2023-04-17T12:37:11.593Z,4.53
2023-04-17T12:39:40.179Z,4.80
2023-04-17T12:42:08.811Z,4.50
2023-04-17T12:44:37.617Z,4.25
2023-04-17T12:47:06.393Z,4.80
2023-04-17T12:49:34.815Z,4.20
2023-04-17T12:52:04.818Z,4.45
2023-04-17T12:54:36.424Z,4.28
2023-04-17T12:57:04.928Z,3.97
2023-04-17T12:59:33.866Z,4.45
2023-04-17T13:02:02.948Z,3.80
2023-04-17T13:04:31.792Z,4.82
2023-04-17T13:07:00.739Z,4.78
2023-04-17T13:09:30.674Z,4.47
2023-04-17T13:11:59.194Z,4.38
2023-04-17T13:14:30.849Z,4.57
2023-04-17T13:16:59.531Z,4.38
2023-04-17T13:19:28.056Z,4.97
2023-04-17T13:21:56.546Z,4.72
2023-04-17T13:24:25.279Z,4.93
2023-04-17T13:26:58.317Z,5.13
2023-04-17T13:29:26.736Z,5.13
2023-04-17T13:31:55.201Z,5.03
2023-04-17T13:34:23.700Z,4.82
2023-04-17T13:36:54.961Z,4.78
2023-04-17T13:39:25.413Z,5.60
2023-04-17T13:41:58.324Z,5.45
2023-04-17T13:44:28.862Z,5.72
2023-04-17T13:46:57.684Z,6.10
2023-04-17T13:49:27.557Z,5.63
2023-04-17T13:51:56.293Z,5.50
2023-04-17T13:54:24.831Z,5.75
2023-04-17T13:56:54.638Z,5.78
2023-04-17T13:59:24.513Z,5.82
2023-04-17T14:01:53.450Z,6.53
2023-04-17T14:04:22.337Z,9.20
2023-04-17T14:06:51.526Z,7.20
2023-04-17T14:09:19.927Z,7.07
2023-04-17T14:11:48.461Z,7.50
2023-04-17T14:14:16.931Z,6.88
2023-04-17T14:16:50.892Z,8.68
2023-04-17T14:19:20.124Z,7.03
2023-04-17T14:21:49.390Z,6.40
2023-04-17T14:24:18.757Z,6.22
2023-04-17T14:26:47.474Z,6.10
2023-04-17T14:29:16.127Z,6.45
2023-04-17T14:31:46.220Z,6.40
2023-04-17T14:34:14.927Z,6.07
2023-04-17T14:36:43.722Z,5.97
2023-04-17T14:39:12.944Z,5.50
2023-04-17T14:41:41.655Z,5.60
2023-04-17T14:44:11.534Z,5.25
2023-04-17T14:46:40.298Z,4.53
2023-04-17T14:49:10.163Z,4.97
2023-04-17T14:51:39.966Z,5.00
2023-04-17T14:54:08.858Z,5.88
2023-04-17T14:56:37.447Z,5.50
2023-04-17T14:59:07.291Z,4.90
2023-04-17T15:01:35.893Z,4.85
2023-04-17T15:04:04.667Z,5.15
2023-04-17T15:06:35.455Z,5.43
2023-04-17T15:09:04.204Z,4.85
2023-04-17T15:11:32.684Z,5.40
2023-04-17T15:14:01.225Z,5.50
2023-04-17T15:16:30.042Z,5.63
2023-04-17T15:18:58.691Z,6.25
2023-04-17T15:21:27.316Z,5.40
2023-04-17T15:23:57.236Z,5.40
2023-04-17T15:26:27.274Z,5.90
2023-04-17T15:28:55.746Z,5.55
2023-04-17T15:31:24.393Z,5.45
2023-04-17T15:33:53.146Z,5.25
2023-04-17T15:36:21.495Z,5.00
2023-04-17T15:38:49.969Z,5.20
2023-04-17T15:41:19.848Z,4.80
2023-04-17T15:43:48.312Z,4.35
2023-04-17T15:46:17.034Z,4.53
2023-04-17T15:48:52.012Z,4.68
2023-04-17T15:51:29.742Z,5.40
2023-04-17T15:53:58.552Z,4.65
2023-04-17T15:56:28.404Z,4.72
2023-04-17T15:58:57.260Z,4.65
2023-04-17T16:01:26.533Z,4.78
2023-04-17T16:03:55.169Z,4.32
2023-04-17T16:06:23.780Z,4.40
2023-04-17T16:08:52.422Z,4.90
2023-04-17T16:11:21.024Z,4.78
2023-04-17T16:13:51.145Z,4.80
2023-04-17T16:16:19.781Z,4.80
2023-04-17T16:18:48.474Z,4.25
2023-04-17T16:21:17.300Z,4.20
2023-04-17T16:23:48.731Z,4.20
2023-04-17T16:26:17.315Z,4.28
2023-04-17T16:28:46.428Z,4.43
2023-04-17T16:31:17.358Z,4.40
2023-04-17T16:33:46.046Z,4.90
2023-04-17T16:36:14.659Z,4.55
2023-04-17T16:38:43.360Z,4.65
2023-04-17T16:41:12.234Z,4.28
2023-04-17T16:43:41.919Z,5.00
2023-04-17T16:46:18.728Z,4.45
2023-04-17T16:48:53.190Z,4.18
2023-04-17T16:51:23.709Z,4.22
2023-04-17T16:53:52.227Z,3.85
2023-04-17T16:56:21.110Z,4.22
2023-04-17T16:58:49.565Z,4.10
2023-04-17T17:01:18.371Z,4.38
2023-04-17T17:03:47.087Z,4.50
2023-04-17T17:06:18.174Z,4.00
2023-04-17T17:08:46.945Z,3.97
2023-04-17T17:11:16.100Z,3.58
2023-04-17T17:13:47.411Z,4.43
2023-04-17T17:16:16.930Z,4.30
2023-04-17T17:18:46.077Z,4.05
2023-04-17T17:21:16.125Z,4.25
2023-04-17T17:23:44.944Z,4.40
2023-04-17T17:26:13.417Z,4.60
2023-04-17T17:28:41.926Z,4.40
2023-04-17T17:31:10.681Z,4.07
2023-04-17T17:33:39.277Z,4.10
2023-04-17T17:36:08.985Z,3.70
2023-04-17T17:38:39.029Z,3.72
2023-04-17T17:41:07.572Z,4.00
2023-04-17T17:43:36.202Z,4.20
2023-04-17T17:46:04.713Z,3.95
2023-04-17T17:48:35.597Z,3.88
2023-04-17T17:51:04.217Z,4.38
2023-04-17T17:53:32.783Z,4.35
2023-04-17T17:56:02.842Z,3.90
2023-04-17T17:58:31.346Z,3.85
2023-04-17T18:00:59.974Z,3.50
2023-04-17T18:03:28.631Z,4.50
2023-04-17T18:05:57.429Z,3.30
2023-04-17T18:08:26.037Z,3.65
2023-04-17T18:10:54.588Z,3.47
2023-04-17T18:13:24.638Z,4.05
2023-04-17T18:15:53.429Z,3.45
2023-04-17T18:18:21.944Z,3.33
2023-04-17T18:20:50.831Z,3.40
2023-04-17T18:23:19.494Z,3.40
2023-04-17T18:25:57.750Z,3.50
2023-04-17T18:28:28.269Z,3.65
2023-04-17T18:30:57.136Z,3.40
2023-04-17T18:33:25.748Z,3.47
2023-04-17T18:35:54.338Z,3.47
2023-04-17T18:38:22.899Z,3.45
2023-04-17T18:40:55.516Z,3.50
2023-04-17T18:43:24.234Z,3.25
2023-04-17T18:45:54.591Z,3.05
2023-04-17T18:48:24.255Z,3.50
2023-04-17T18:50:52.865Z,3.40
2023-04-17T18:53:21.539Z,3.10
2023-04-17T18:55:50.214Z,3.10
2023-04-17T18:58:18.980Z,3.13
2023-04-17T19:00:47.812Z,3.20
2023-04-17T19:03:18.024Z,3.40
2023-04-17T19:05:46.804Z,3.20
2023-04-17T19:08:15.879Z,3.03
2023-04-17T19:10:44.419Z,3.22
2023-04-17T19:13:12.987Z,3.03
2023-04-17T19:15:41.690Z,3.05
2023-04-17T19:18:10.832Z,3.10
2023-04-17T19:20:42.425Z,2.88
2023-04-17T19:23:11.219Z,3.03
2023-04-17T19:25:41.679Z,3.05
2023-04-17T19:28:11.431Z,2.90
2023-04-17T19:30:40.229Z,2.72
2023-04-17T19:33:08.907Z,3.28
2023-04-17T19:35:37.622Z,2.92
2023-04-17T19:38:07.636Z,2.92
2023-04-17T19:40:36.131Z,3.10
2023-04-17T19:43:04.710Z,2.90
2023-04-17T19:45:34.816Z,3.00
2023-04-17T19:48:03.637Z,3.05
2023-04-17T19:50:32.388Z,3.13
2023-04-17T19:53:01.072Z,3.05
2023-04-17T19:55:31.199Z,3.20
2023-04-17T19:57:59.937Z,3.47
2023-04-17T20:00:29.053Z,3.60
2023-04-17T20:02:57.716Z,4.07
2023-04-17T20:05:27.450Z,3.65
2023-04-17T20:07:56.061Z,3.60
2023-04-17T20:10:24.876Z,3.90
2023-04-17T20:12:54.813Z,3.90
2023-04-17T20:15:23.399Z,3.97
2023-04-17T20:17:52.145Z,3.97
2023-04-17T20:20:20.825Z,3.83
2023-04-17T20:22:49.875Z,3.85
2023-04-17T20:25:18.593Z,3.63
2023-04-17T20:27:47.776Z,3.70
2023-04-17T20:30:18.007Z,3.70
2023-04-17T20:32:48.101Z,4.00
2023-04-17T20:35:17.728Z,4.25
2023-04-17T20:37:46.486Z,3.83
2023-04-17T20:40:15.373Z,3.60
2023-04-17T20:42:45.209Z,3.60
2023-04-17T20:45:13.983Z,3.63
2023-04-17T20:50:16.996Z,3.63
2023-04-17T20:52:45.691Z,3.55
2023-04-17T20:55:14.313Z,3.83
2023-04-17T20:57:42.872Z,4.00
2023-04-17T21:00:12.391Z,3.80
2023-04-17T21:02:41.336Z,4.13
2023-04-17T21:05:11.492Z,3.75
2023-04-17T21:07:40.041Z,3.65
2023-04-17T21:10:09.544Z,3.80
2023-04-17T21:12:38.238Z,3.97
2023-04-17T21:15:07.716Z,4.53
2023-04-17T21:17:36.233Z,3.95
2023-04-17T21:20:05.532Z,3.72
2023-04-17T21:22:36.831Z,4.35
2023-04-17T21:25:06.240Z,4.45
2023-04-17T21:27:34.750Z,4.53
2023-04-17T21:30:03.962Z,4.13
2023-04-17T21:32:32.528Z,4.25
2023-04-17T21:35:01.122Z,4.22
2023-04-17T21:37:29.596Z,4.35
2023-04-17T21:39:59.625Z,4.30
2023-04-17T21:42:28.220Z,4.07
2023-04-17T21:44:56.687Z,4.32
2023-04-17T21:47:26.829Z,4.07
2023-04-17T21:49:55.477Z,4.60
2023-04-17T21:52:24.000Z,4.85
2023-04-17T21:54:52.498Z,3.92
2023-04-17T21:57:22.425Z,4.35
2023-04-17T21:59:51.033Z,4.18
2023-04-17T22:02:19.695Z,3.97
2023-04-17T22:04:48.392Z,4.22
2023-04-17T22:07:18.456Z,4.28
2023-04-17T22:09:46.965Z,4.40
2023-04-17T22:12:17.728Z,4.13
2023-04-17T22:14:48.033Z,4.50
2023-04-17T22:17:17.196Z,4.40
2023-04-17T22:19:45.739Z,4.03
2023-04-17T22:22:14.235Z,4.32
2023-04-17T22:24:43.267Z,4.03
2023-04-17T22:27:14.116Z,4.35
2023-04-17T22:29:42.636Z,3.70
2023-04-17T22:32:12.484Z,4.90
2023-04-17T22:34:42.424Z,4.40
2023-04-17T22:37:11.187Z,4.53
2023-04-17T22:39:39.680Z,4.07
2023-04-17T22:42:08.250Z,3.85
2023-04-17T22:44:36.821Z,4.18
2023-04-17T22:47:05.511Z,3.60
2023-04-17T22:49:37.994Z,3.72
2023-04-17T22:52:06.846Z,3.40
2023-04-17T22:54:35.756Z,4.07
2023-04-17T22:57:04.345Z,4.05
2023-04-17T22:59:32.921Z,3.78
2023-04-17T23:02:01.545Z,3.90
2023-04-17T23:04:30.373Z,4.05
2023-04-17T23:07:00.598Z,4.05
2023-04-17T23:09:29.224Z,3.90
2023-04-17T23:11:57.759Z,3.85
2023-04-17T23:14:28.493Z,4.03
2023-04-17T23:16:57.021Z,3.65
2023-04-17T23:19:25.695Z,3.60
2023-04-17T23:21:54.265Z,3.58
2023-04-17T23:24:24.199Z,4.00
2023-04-17T23:26:54.877Z,3.95
2023-04-17T23:29:23.421Z,4.05
2023-04-17T23:31:52.028Z,3.30
2023-04-17T23:34:20.735Z,3.10
2023-04-17T23:36:49.323Z,3.22
2023-04-17T23:39:17.874Z,3.17
2023-04-17T23:41:47.904Z,3.58
2023-04-17T23:44:16.396Z,3.95
2023-04-17T23:46:44.889Z,4.05
2023-04-17T23:49:13.482Z,4.20
2023-04-17T23:51:42.064Z,4.35
2023-04-17T23:54:11.415Z,3.83
2023-04-17T23:56:43.465Z,3.97
2023-04-17T23:59:14.890Z,4.22
